Time;durP1;ratioP1;P1;durP2;ratioP2;P2;SDS_P1;SDS_P2;PMS_P1;PMS_P2;Temp;Humidity;BMP_temperature;BMP_pressure;BME280_temperature;BME280_humidity;BME280_pressure;Samples;Min_cycle;Max_cycle;Signal;HPM_P1;HPM_P2
2022/06/14 00:01:38;;;;;;;3.53;1.33;;;;;;;17.71;52.78;100543.31;4974018;28;20033;-84
2022/06/14 00:04:04;;;;;;;2.72;1.35;;;;;;;17.72;52.99;100538.75;4973783;28;20030;-85
2022/06/14 00:06:31;;;;;;;3.40;1.30;;;;;;;17.75;52.48;100544.66;4974556;28;20108;-85
2022/06/14 00:08:58;;;;;;;2.20;1.00;;;;;;;17.70;53.19;100547.03;4973513;28;20049;-85
2022/06/14 00:11:30;;;;;;;2.72;1.30;;;;;;;17.69;52.44;100541.81;4974278;28;20064;-84
2022/06/14 00:13:56;;;;;;;3.25;1.30;;;;;;;17.74;52.68;100540.28;4996861;28;20033;-85
2022/06/14 00:16:23;;;;;;;4.25;1.45;;;;;;;17.66;52.53;100539.41;4973891;28;20501;-84
2022/06/14 00:18:49;;;;;;;4.72;1.40;;;;;;;17.57;52.87;100544.81;5004929;28;20053;-85
2022/06/14 00:21:14;;;;;;;4.53;1.88;;;;;;;17.57;52.81;100542.09;5454718;23;20108;-85
2022/06/14 00:23:40;;;;;;;2.70;1.50;;;;;;;17.57;52.31;100544.81;4993822;28;20048;-85
2022/06/14 00:26:06;;;;;;;3.25;1.70;;;;;;;17.57;52.94;100544.81;4981635;28;20023;-85
2022/06/14 00:28:33;;;;;;;5.55;1.63;;;;;;;17.58;52.05;100553.78;4996047;28;20921;-85
2022/06/14 00:31:03;;;;;;;6.75;1.92;;;;;;;17.59;52.32;100541.94;4980916;28;20084;-85
2022/06/14 00:33:28;;;;;;;4.72;2.20;;;;;;;17.54;52.52;100544.31;4980209;28;20483;-85
2022/06/14 00:36:05;;;;;;;5.90;2.90;;;;;;;17.44;52.66;100539.03;4994272;28;20034;-84
2022/06/14 00:38:35;;;;;;;6.35;2.80;;;;;;;17.43;52.79;100547.31;4992568;28;20128;-85
2022/06/14 00:41:01;;;;;;;5.45;2.70;;;;;;;17.45;52.77;100537.19;4997376;28;20066;-85
2022/06/14 00:43:29;;;;;;;4.07;2.28;;;;;;;17.44;52.86;100538.19;4994509;28;20045;-85
2022/06/14 00:46:04;;;;;;;3.20;2.00;;;;;;;17.36;52.70;100541.72;4998416;28;20476;-85
2022/06/14 00:48:30;;;;;;;6.70;2.42;;;;;;;17.32;52.50;100532.28;4995032;28;20113;-85
2022/06/14 00:51:00;;;;;;;4.47;2.67;;;;;;;17.26;52.20;100531.09;4995914;28;20125;-85
2022/06/14 00:53:29;;;;;;;4.88;2.70;;;;;;;17.31;51.94;100526.00;5012127;28;20109;-85
2022/06/14 00:56:00;;;;;;;6.93;3.28;;;;;;;17.31;51.87;100536.84;5012868;28;20236;-84
2022/06/14 00:58:36;;;;;;;4.88;3.00;;;;;;;17.28;52.08;100534.47;4996999;28;20030;-85
2022/06/14 01:01:07;;;;;;;6.30;2.80;;;;;;;17.22;52.26;100529.72;5012406;28;20034;-84
2022/06/14 01:03:39;;;;;;;5.38;2.85;;;;;;;17.23;52.30;100528.72;4993470;28;20053;-85
2022/06/14 01:06:12;;;;;;;5.30;2.90;;;;;;;17.08;53.41;100529.53;4995877;28;20428;-84
2022/06/14 01:08:44;;;;;;;5.20;2.63;;;;;;;17.16;53.42;100526.84;4979718;28;20068;-85
2022/06/14 01:11:14;;;;;;;6.18;3.20;;;;;;;17.02;52.67;100530.16;4986464;28;20052;-85
2022/06/14 01:13:40;;;;;;;5.35;2.85;;;;;;;17.01;53.53;100529.31;4991990;28;20030;-85
2022/06/14 01:16:05;;;;;;;3.97;2.60;;;;;;;17.01;53.25;100526.63;4994086;28;20081;-85
2022/06/14 01:18:31;;;;;;;5.68;2.80;;;;;;;16.86;53.42;100528.28;4995468;28;20481;-85
2022/06/14 01:20:56;;;;;;;4.28;2.20;;;;;;;16.86;53.16;100512.91;5014941;28;20807;-85
2022/06/14 01:23:22;;;;;;;5.90;2.60;;;;;;;16.92;53.77;100514.94;5031906;28;20411;-85
2022/06/14 01:25:50;;;;;;;4.57;2.20;;;;;;;16.88;52.98;100512.75;5000220;28;20075;-85
2022/06/14 01:28:16;;;;;;;4.65;2.10;;;;;;;16.89;53.79;100506.34;5020009;28;20025;-84
2022/06/14 01:30:48;;;;;;;3.92;2.05;;;;;;;16.92;54.13;100506.84;5036664;28;20032;-85
2022/06/14 01:33:17;;;;;;;3.85;2.05;;;;;;;16.91;54.04;100507.00;5033018;28;20071;-84
2022/06/14 01:35:45;;;;;;;5.07;2.00;;;;;;;16.90;54.09;100502.63;5007433;28;20030;-84
2022/06/14 01:38:13;;;;;;;5.75;2.10;;;;;;;16.77;53.71;100505.78;5022999;28;20162;-84
2022/06/14 01:40:55;;;;;;;3.70;2.00;;;;;;;16.75;54.34;100502.41;5021318;28;20371;-85
2022/06/14 01:43:36;;;;;;;4.93;2.10;;;;;;;16.77;53.28;100502.25;5013045;28;20025;-84
2022/06/14 01:46:05;;;;;;;4.10;2.05;;;;;;;16.75;53.40;100502.41;5019846;28;20033;-84
2022/06/14 01:48:40;;;;;;;3.22;2.00;;;;;;;16.78;54.33;100506.66;5039345;28;20021;-85
2022/06/14 01:54:39;;;;;;;3.50;1.73;;;;;;;16.70;53.57;100501.22;5024125;28;20040;-84
2022/06/14 01:57:40;;;;;;;3.90;2.10;;;;;;;16.73;53.92;100493.63;5020355;28;20467;-84
2022/06/14 02:00:11;;;;;;;5.47;2.17;;;;;;;16.72;54.32;100497.34;4978206;28;20090;-85
2022/06/14 02:05:51;;;;;;;4.00;2.08;;;;;;;16.55;54.07;100509.88;5042739;28;20407;-85
2022/06/14 02:08:20;;;;;;;4.78;2.30;;;;;;;16.62;54.16;100497.47;5035604;28;20072;-84
2022/06/14 02:10:53;;;;;;;4.93;2.13;;;;;;;16.42;54.05;100495.16;5036769;28;20104;-85
2022/06/14 02:13:30;;;;;;;3.40;1.98;;;;;;;16.41;54.72;100499.72;5019524;28;20086;-85
2022/06/14 02:16:05;;;;;;;3.92;2.13;;;;;;;16.45;54.19;100501.06;5002192;28;20024;-84
2022/06/14 02:18:38;;;;;;;4.03;1.75;;;;;;;16.56;53.60;100502.66;5034645;28;20463;-84
2022/06/14 02:21:19;;;;;;;4.22;1.90;;;;;;;16.57;54.10;100493.56;5017861;28;20029;-84
2022/06/14 02:23:50;;;;;;;5.40;1.92;;;;;;;16.51;54.07;100480.69;5038763;28;20024;-84
2022/06/14 02:26:33;;;;;;;4.18;1.60;;;;;;;16.44;53.92;100490.44;5020484;28;20555;-84
2022/06/14 02:29:10;;;;;;;4.75;1.95;;;;;;;16.43;54.23;100488.75;5019771;28;20047;-85
2022/06/14 02:31:45;;;;;;;3.00;1.80;;;;;;;16.45;53.29;100482.19;5020718;28;20028;-85
2022/06/14 02:34:13;;;;;;;3.40;1.65;;;;;;;16.43;53.77;100484.19;5019358;28;20060;-84
2022/06/14 02:36:44;;;;;;;2.75;1.90;;;;;;;16.37;54.34;100484.84;5035310;28;20029;-84
2022/06/14 02:39:19;;;;;;;3.92;1.88;;;;;;;16.37;54.23;100485.69;5022262;28;20082;-84
2022/06/14 02:41:56;;;;;;;4.45;1.77;;;;;;;16.38;53.58;100481.13;5023149;28;20025;-84
2022/06/14 02:44:31;;;;;;;4.03;1.80;;;;;;;16.35;53.45;100482.31;5038545;28;20045;-84
2022/06/14 02:47:02;;;;;;;4.13;1.65;;;;;;;16.31;53.96;100483.66;5004249;28;20061;-85
2022/06/14 02:49:45;;;;;;;3.45;1.60;;;;;;;16.26;53.80;100488.69;5016746;28;20025;-85
2022/06/14 02:52:15;;;;;;;4.85;1.88;;;;;;;16.27;54.48;100484.13;5032567;28;20017;-84
2022/06/14 02:55:03;;;;;;;3.40;1.70;;;;;;;16.24;54.52;100485.31;5021977;28;20029;-85
2022/06/14 02:57:34;;;;;;;4.15;1.60;;;;;;;16.20;54.60;100475.00;5037140;28;20037;-84
2022/06/14 03:00:08;;;;;;;3.60;1.70;;;;;;;16.20;53.82;100475.00;5020230;28;20119;-84
2022/06/14 03:02:38;;;;;;;4.93;1.92;;;;;;;16.13;53.77;100466.69;5019942;28;20428;-85
2022/06/14 03:05:36;;;;;;;4.05;1.80;;;;;;;16.13;54.34;100469.41;5018409;28;20029;-84
2022/06/14 03:08:25;;;;;;;4.30;1.60;;;;;;;16.08;54.26;100471.69;5024072;28;20033;-85
2022/06/14 03:11:09;;;;;;;4.65;1.92;;;;;;;16.08;54.84;100465.47;5021585;28;20033;-84
2022/06/14 03:13:34;;;;;;;3.75;1.70;;;;;;;15.99;54.68;100473.50;5021267;28;20036;-84
2022/06/14 03:16:19;;;;;;;3.63;1.80;;;;;;;15.96;54.94;100473.00;5036593;28;20522;-85
2022/06/14 03:18:55;;;;;;;2.80;1.60;;;;;;;15.97;55.09;100475.53;5037505;28;20070;-84
2022/06/14 03:21:35;;;;;;;4.32;1.67;;;;;;;15.95;55.39;100472.13;5004634;28;20045;-85
2022/06/14 03:24:11;;;;;;;5.03;1.80;;;;;;;15.97;55.02;100467.44;5011269;28;20038;-84
2022/06/14 03:26:58;;;;;;;5.22;1.85;;;;;;;15.98;55.46;100462.88;5003388;28;20033;-85
2022/06/14 03:29:36;;;;;;;4.15;1.90;;;;;;;16.00;55.00;100456.31;5038247;28;20029;-85
2022/06/14 03:32:07;;;;;;;4.40;1.80;;;;;;;15.85;55.26;100465.16;5004611;28;20123;-84
2022/06/14 03:34:57;;;;;;;4.80;1.77;;;;;;;15.84;55.43;100458.94;5038062;28;20495;-85
2022/06/14 03:37:23;;;;;;;4.03;1.67;;;;;;;15.84;55.25;100456.22;4993554;28;20041;-85
2022/06/14 03:39:54;;;;;;;3.05;1.60;;;;;;;15.84;55.10;100458.09;5001397;28;20076;-85
2022/06/14 03:42:19;;;;;;;4.60;1.42;;;;;;;15.84;55.29;100456.22;5019329;28;20027;-84
2022/06/14 03:44:45;;;;;;;3.67;1.50;;;;;;;15.82;55.07;100455.53;5003472;28;20029;-85
2022/06/14 03:47:29;;;;;;;3.67;1.60;;;;;;;15.82;55.94;100455.53;5001007;28;20107;-87
2022/06/14 03:50:06;;;;;;;2.83;1.63;;;;;;;15.79;55.60;100450.47;5020462;28;20087;-84
2022/06/14 03:53:04;;;;;;;3.45;1.60;;;;;;;15.82;55.82;100447.47;5032932;28;20637;-85
2022/06/14 03:55:55;;;;;;;3.00;1.65;;;;;;;15.77;55.73;100448.94;5019148;28;20036;-85
2022/06/14 03:58:31;;;;;;;2.75;1.75;;;;;;;15.80;56.20;100452.16;5022171;28;20033;-84
2022/06/14 04:01:10;;;;;;;3.47;2.03;;;;;;;15.80;55.12;100454.00;5034102;28;20108;-85
2022/06/14 04:03:47;;;;;;;2.83;1.70;;;;;;;15.66;55.73;100455.44;5004753;28;20013;-84
2022/06/14 04:06:42;;;;;;;3.60;1.77;;;;;;;15.66;56.76;100459.00;5020468;28;20033;-87
2022/06/14 04:09:39;;;;;;;3.30;1.50;;;;;;;15.73;56.58;100457.34;5010300;28;20284;-87
2022/06/14 04:12:17;;;;;;;2.20;1.77;;;;;;;15.74;56.57;100459.03;5019675;28;20048;-87
2022/06/14 04:15:10;;;;;;;3.30;1.70;;;;;;;15.71;56.00;100462.06;5038294;28;20032;-87
2022/06/14 04:17:53;;;;;;;3.03;1.70;;;;;;;15.72;56.78;100469.16;5018753;28;20414;-87
2022/06/14 04:22:56;;;;;;;3.95;1.90;;;;;;;15.72;56.25;100466.44;5263973;22;20643;-87
2022/06/14 04:25:29;;;;;;;3.42;1.90;;;;;;;15.70;57.35;100464.91;4998759;28;20656;-87
2022/06/14 04:28:11;;;;;;;3.15;1.88;;;;;;;15.73;56.89;100470.00;4983894;28;20052;-87
2022/06/14 04:30:41;;;;;;;4.45;2.10;;;;;;;15.69;57.77;100464.06;4985659;28;20026;-87
2022/06/14 04:33:17;;;;;;;3.95;1.75;;;;;;;15.71;57.48;100467.44;5013363;28;20488;-87
2022/06/14 04:35:48;;;;;;;7.35;2.42;;;;;;;15.79;57.48;100465.81;4998377;28;20036;-88
2022/06/14 04:38:24;;;;;;;6.55;2.10;;;;;;;15.81;57.79;100463.81;4981696;28;20033;-87
2022/06/14 04:40:54;;;;;;;3.88;1.77;;;;;;;15.82;57.42;100463.63;5001702;28;20030;-87
2022/06/14 04:44:00;;;;;;;3.03;1.90;;;;;;;15.70;57.85;100467.63;4981179;28;20017;-87
2022/06/14 04:46:36;;;;;;;3.80;1.70;;;;;;;15.77;57.97;100468.66;4981277;28;20033;-87
2022/06/14 04:49:07;;;;;;;5.45;2.38;;;;;;;15.68;58.14;100472.31;4999751;28;20022;-87
2022/06/14 04:51:41;;;;;;;3.92;1.88;;;;;;;15.75;58.01;100462.59;4990370;28;20018;-86
2022/06/14 04:54:33;;;;;;;5.57;1.98;;;;;;;15.56;58.33;100470.81;5016035;28;20022;-87
2022/06/14 04:56:58;;;;;;;3.70;2.13;;;;;;;15.60;58.58;100465.00;4984137;28;20129;-88
2022/06/14 04:59:33;;;;;;;3.13;1.73;;;;;;;15.76;58.36;100466.13;4999490;28;20124;-86
2022/06/14 05:02:09;;;;;;;3.40;1.90;;;;;;;15.78;57.86;100464.97;4990521;28;20021;-87
2022/06/14 05:04:37;;;;;;;3.47;1.83;;;;;;;15.80;58.34;100460.25;5013907;28;20190;-87
2022/06/14 05:07:09;;;;;;;3.95;1.90;;;;;;;15.68;58.51;100462.38;4997228;28;20107;-87
2022/06/14 05:09:39;;;;;;;4.22;1.95;;;;;;;15.69;58.67;100468.63;4985736;28;20037;-87
2022/06/14 05:12:08;;;;;;;4.78;2.30;;;;;;;15.78;58.98;100464.97;4993637;28;20033;-87
2022/06/14 05:14:47;;;;;;;4.55;2.08;;;;;;;15.74;58.81;100467.13;4987359;28;20069;-87
2022/06/14 05:17:18;;;;;;;4.38;2.20;;;;;;;15.78;58.77;100462.28;4982109;28;20029;-88
2022/06/14 05:19:58;;;;;;;2.67;1.88;;;;;;;15.87;58.71;100468.56;4985717;28;20038;-88
2022/06/14 05:22:47;;;;;;;3.47;1.88;;;;;;;15.91;59.17;100464.53;5001659;28;20060;-88
2022/06/14 05:25:13;;;;;;;3.78;2.28;;;;;;;15.95;59.07;100460.50;5008067;28;20076;-87
2022/06/14 05:27:58;;;;;;;4.32;1.80;;;;;;;15.96;59.00;100460.34;4991531;28;20498;-87
2022/06/14 05:30:47;;;;;;;4.15;2.47;;;;;;;15.84;60.39;100456.22;4995776;28;20044;-88
2022/06/14 05:33:37;;;;;;;3.50;2.20;;;;;;;15.93;59.80;100460.66;5013323;28;20087;-88
2022/06/14 05:36:16;;;;;;;5.82;2.13;;;;;;;15.98;60.56;100462.88;4980566;28;20030;-87
2022/06/14 05:39:35;;;;;;;5.43;2.15;;;;;;;16.05;60.32;100466.63;4992918;28;20093;-88
2022/06/14 05:42:37;;;;;;;4.43;2.05;;;;;;;16.02;60.52;100459.69;4883959;29;20032;-87
2022/06/14 05:45:03;;;;;;;5.97;2.25;;;;;;;16.03;60.67;100463.25;4994866;28;20112;-88
2022/06/14 05:47:36;;;;;;;5.97;2.40;;;;;;;15.93;61.76;100452.56;4987940;28;20382;-87
2022/06/14 05:50:06;;;;;;;3.22;2.00;;;;;;;15.98;61.46;100452.94;4997079;28;20181;-88
2022/06/14 05:52:54;;;;;;;7.22;2.50;;;;;;;15.94;60.44;100469.59;4979070;28;20029;-87
2022/06/14 05:55:28;;;;;;;5.03;2.33;;;;;;;15.88;60.25;100465.69;4990580;28;20239;-88
2022/06/14 05:57:59;;;;;;;4.20;2.33;;;;;;;15.90;60.01;100462.84;4987556;28;20030;-88
2022/06/14 06:00:30;;;;;;;3.85;2.25;;;;;;;15.97;60.45;100475.53;5001965;28;20039;-87
2022/06/14 06:03:12;;;;;;;5.70;2.65;;;;;;;16.08;60.03;100477.09;4997203;28;20022;-88
2022/06/14 06:06:14;;;;;;;5.32;2.60;;;;;;;16.05;60.54;100475.56;4999827;28;20079;-88
2022/06/14 06:08:52;;;;;;;6.03;2.28;;;;;;;16.12;59.86;100472.25;4992748;28;20037;-88
2022/06/14 06:11:22;;;;;;;4.88;1.98;;;;;;;16.03;58.16;100474.03;5000331;28;20041;-88
2022/06/14 06:13:53;;;;;;;8.00;2.22;;;;;;;16.12;58.10;100478.50;4990464;28;20025;-88
2022/06/14 06:16:25;;;;;;;5.72;2.30;;;;;;;16.04;58.54;100478.44;4996679;28;20026;-88
2022/06/14 06:18:56;;;;;;;7.07;2.55;;;;;;;16.03;58.93;100480.28;5006027;28;20049;-88
2022/06/14 06:21:49;;;;;;;6.95;2.58;;;;;;;15.97;58.66;100480.91;5001665;28;20109;-88
2022/06/14 06:24:29;;;;;;;4.45;2.45;;;;;;;16.09;58.63;100478.81;5004437;28;20026;-88
2022/06/14 06:27:13;;;;;;;7.40;2.25;;;;;;;16.09;58.29;100478.81;4991438;28;20032;-88
2022/06/14 06:29:43;;;;;;;7.13;2.30;;;;;;;16.09;58.50;100478.81;5026057;28;20777;-88
2022/06/14 06:32:09;;;;;;;5.20;2.20;;;;;;;16.10;58.08;100474.28;4988949;28;20029;-88
2022/06/14 06:34:35;;;;;;;6.43;2.30;;;;;;;16.03;57.93;100476.72;5006759;28;20045;-87
2022/06/14 06:37:14;;;;;;;4.70;2.33;;;;;;;15.95;58.45;100480.25;4994672;28;20030;-88
2022/06/14 06:39:45;;;;;;;6.95;2.50;;;;;;;16.05;58.76;100475.56;4987802;28;20540;-88
2022/06/14 06:42:42;;;;;;;6.07;2.42;;;;;;;16.23;58.76;100472.81;5004672;28;20484;-88
2022/06/14 06:45:20;;;;;;;7.25;2.40;;;;;;;16.24;58.50;100474.50;5005636;28;20049;-89
2022/06/14 06:47:51;;;;;;;7.28;2.53;;;;;;;16.20;58.15;100473.13;4993473;28;20381;-88
2022/06/14 06:50:25;;;;;;;7.75;2.83;;;;;;;16.24;58.30;100489.84;5022497;28;20045;-88
2022/06/14 06:53:12;;;;;;;7.28;2.35;;;;;;;16.12;58.16;100485.75;4992252;28;20122;-89
2022/06/14 06:55:57;;;;;;;7.35;2.35;;;;;;;16.13;57.85;100484.75;4988680;28;20029;-88
2022/06/14 06:58:35;;;;;;;7.53;2.40;;;;;;;16.15;58.67;100485.44;4989164;28;20136;-88
2022/06/14 07:01:12;;;;;;;3.60;2.00;;;;;;;16.25;59.19;100483.44;5019780;28;20193;-88
2022/06/14 07:03:50;;;;;;;5.68;2.10;;;;;;;16.25;57.90;100483.44;5002264;28;20384;-87
2022/06/14 07:06:24;;;;;;;5.23;2.10;;;;;;;16.21;57.65;100482.06;5005458;28;20026;-87
2022/06/14 07:08:57;;;;;;;4.72;1.85;;;;;;;16.34;57.59;100482.47;4987315;28;20063;-87
2022/06/14 07:11:34;;;;;;;7.20;2.35;;;;;;;16.40;57.56;100478.28;4985815;28;20681;-87
2022/06/14 07:14:06;;;;;;;4.27;1.83;;;;;;;16.42;57.45;100481.66;5005095;28;20029;-87
2022/06/14 07:16:35;;;;;;;6.35;1.63;;;;;;;16.33;56.46;100480.78;5003823;28;20037;-87
2022/06/14 07:19:22;;;;;;;5.28;1.60;;;;;;;16.34;56.33;100490.56;4993912;28;20034;-87
2022/06/14 07:22:10;;;;;;;7.57;2.15;;;;;;;16.29;55.55;100485.66;4988791;28;20045;-87
2022/06/14 07:24:52;;;;;;;6.60;1.90;;;;;;;16.35;56.02;100479.63;4981643;28;20033;-87
2022/06/14 07:27:21;;;;;;;4.20;1.80;;;;;;;16.34;55.74;100487.88;5006581;28;20108;-87
2022/06/14 07:29:56;;;;;;;4.68;1.88;;;;;;;16.35;55.94;100486.88;5021468;28;20037;-87
2022/06/14 07:32:32;;;;;;;4.72;1.80;;;;;;;16.42;55.98;100482.50;4988919;28;20031;-87
2022/06/14 07:34:59;;;;;;;5.43;2.17;;;;;;;16.45;55.81;100482.19;5002068;28;20029;-87
2022/06/14 07:37:37;;;;;;;6.68;1.98;;;;;;;16.56;55.55;100478.38;4989107;28;20037;-87
2022/06/14 07:40:16;;;;;;;4.75;2.15;;;;;;;16.62;56.89;100480.41;5012268;28;20029;-87
2022/06/14 07:42:45;;;;;;;6.22;2.15;;;;;;;16.67;56.33;100488.88;5001518;28;20036;-87
2022/06/14 07:45:31;;;;;;;5.82;2.20;;;;;;;16.55;56.10;100493.69;5019376;28;20040;-87
2022/06/14 07:48:11;;;;;;;5.07;2.20;;;;;;;16.59;55.77;100494.22;5011823;28;20033;-87
2022/06/14 07:50:43;;;;;;;6.43;2.25;;;;;;;16.63;56.04;100482.09;5006001;28;20029;-87
2022/06/14 07:53:38;;;;;;;4.18;1.80;;;;;;;16.57;55.41;100485.44;4989423;28;20033;-87
2022/06/14 07:56:07;;;;;;;5.43;1.92;;;;;;;16.67;56.98;100494.28;5004025;28;20022;-90
2022/06/14 07:58:41;;;;;;;4.95;2.17;;;;;;;16.65;56.29;100483.66;5005163;28;20380;-90
2022/06/14 08:01:13;;;;;;;6.07;2.53;;;;;;;16.74;56.05;100478.28;5012055;28;20037;-90
2022/06/14 08:04:06;;;;;;;5.38;2.20;;;;;;;16.75;56.18;100479.97;4995367;28;20057;-90
2022/06/14 08:06:37;;;;;;;4.85;2.13;;;;;;;16.79;55.16;100484.03;5002032;28;20032;-91
2022/06/14 08:09:10;;;;;;;3.97;2.10;;;;;;;16.78;55.75;100477.78;5012057;28;20041;-92
2022/06/14 08:11:49;;;;;;;5.15;2.28;;;;;;;16.85;55.73;100472.56;4979290;28;20471;-89
2022/06/14 08:14:22;;;;;;;6.05;2.45;;;;;;;16.87;56.19;100468.69;4999280;28;20030;-90
2022/06/14 08:16:49;;;;;;;4.90;2.00;;;;;;;16.97;55.39;100482.88;5002341;28;20025;-92
2022/06/14 08:19:26;;;;;;;4.47;1.70;;;;;;;16.98;55.26;100470.22;4986139;28;20045;-93
2022/06/14 08:21:57;;;;;;;4.03;1.80;;;;;;;16.98;55.65;100457.53;4980970;28;20402;-90
2022/06/14 08:24:27;;;;;;;6.45;2.25;;;;;;;16.90;55.81;100457.53;5007476;28;20065;-90
2022/06/14 08:27:06;;;;;;;6.68;2.40;;;;;;;16.89;56.24;100460.41;5014952;28;20034;-92
2022/06/14 08:29:47;;;;;;;5.78;2.58;;;;;;;16.90;56.17;100454.00;5016864;28;20022;-90
2022/06/14 08:32:23;;;;;;;6.22;2.20;;;;;;;16.87;55.60;100452.47;4987571;28;20030;-90
2022/06/14 08:35:12;;;;;;;5.18;2.17;;;;;;;16.81;54.78;100445.03;4999281;28;20401;-90
2022/06/14 08:37:37;;;;;;;6.72;2.58;;;;;;;16.75;55.43;100444.84;4986340;28;20025;-91
2022/06/14 08:40:41;;;;;;;3.75;2.00;;;;;;;16.89;56.20;100438.78;4995985;28;20030;-89
2022/06/14 08:43:09;;;;;;;4.32;1.92;;;;;;;17.00;56.28;100438.47;4993291;28;20034;-92
2022/06/14 08:45:40;;;;;;;4.72;1.90;;;;;;;16.99;55.36;100439.47;5000483;28;20037;-92
2022/06/14 08:48:20;;;;;;;4.78;1.98;;;;;;;16.99;55.06;100425.97;4980775;28;20058;-89
2022/06/14 08:50:57;;;;;;;4.75;2.10;;;;;;;17.05;55.51;100429.88;4987329;28;20034;-90
2022/06/14 08:53:53;;;;;;;5.38;1.92;;;;;;;17.04;54.53;100431.75;5000412;28;20030;-89
2022/06/14 08:56:36;;;;;;;5.63;2.08;;;;;;;17.06;55.20;100436.97;4995866;28;20117;-91
2022/06/14 08:59:20;;;;;;;7.22;2.42;;;;;;;17.10;55.44;100433.75;4987721;28;20064;-89
2022/06/14 09:02:07;;;;;;;5.68;2.72;;;;;;;16.98;55.82;100435.91;4997739;28;20037;-89
2022/06/14 09:04:53;;;;;;;6.55;2.80;;;;;;;16.89;57.59;100431.53;4995615;28;20392;-91
2022/06/14 09:08:06;;;;;;;5.68;2.22;;;;;;;17.03;57.19;100438.16;5007710;28;20424;-94
2022/06/14 09:10:52;;;;;;;7.07;3.00;;;;;;;16.85;55.63;100440.13;4977420;28;20073;-89
2022/06/14 09:13:55;;;;;;;5.57;2.60;;;;;;;16.79;55.69;100438.09;4988088;28;20030;-91
2022/06/14 09:16:41;;;;;;;7.63;2.90;;;;;;;16.89;55.83;100438.78;4997648;28;20060;-92
2022/06/14 09:19:16;;;;;;;5.60;2.60;;;;;;;17.00;56.69;100436.59;4993194;28;20030;-92
2022/06/14 09:22:10;;;;;;;7.75;2.78;;;;;;;17.04;55.78;100439.00;5012584;28;20128;-92
2022/06/14 09:24:56;;;;;;;8.57;3.05;;;;;;;16.96;56.33;100440.66;4968646;28;20046;-92
2022/06/14 09:27:46;;;;;;;7.75;2.70;;;;;;;16.88;54.82;100435.25;5003413;28;20022;-92
2022/06/14 09:30:47;;;;;;;6.72;3.17;;;;;;;16.93;55.17;100430.19;4982151;28;20026;-92
2022/06/14 09:33:26;;;;;;;4.70;2.20;;;;;;;17.06;56.08;100432.41;5002306;28;20416;-92
2022/06/14 09:36:00;;;;;;;5.07;2.38;;;;;;;17.20;56.13;100429.03;4983336;28;20026;-92
2022/06/14 09:38:46;;;;;;;7.10;2.90;;;;;;;17.16;55.14;100426.84;4996289;28;20405;-93
2022/06/14 09:41:46;;;;;;;6.65;2.40;;;;;;;17.16;54.49;100421.44;4996321;28;20423;-92
2022/06/14 09:44:47;;;;;;;6.65;2.30;;;;;;;17.22;54.72;100412.66;4996120;28;20033;-92
2022/06/14 09:47:38;;;;;;;5.05;2.33;;;;;;;17.22;54.74;100416.19;4992479;28;20040;-93
2022/06/14 09:50:20;;;;;;;7.80;2.67;;;;;;;17.28;54.27;100417.38;4996078;28;20030;-92
2022/06/14 09:53:04;;;;;;;5.45;2.15;;;;;;;17.28;54.19;100411.97;4960796;28;20029;-92
2022/06/14 09:55:42;;;;;;;3.58;1.85;;;;;;;17.33;54.72;100411.44;4978173;28;20030;-93
2022/06/14 09:58:36;;;;;;;4.15;1.90;;;;;;;17.32;54.61;100410.59;4980655;28;20030;-92
2022/06/14 10:01:56;;;;;;;4.43;2.10;;;;;;;17.34;53.54;100418.53;4980441;28;20098;-93
2022/06/14 10:05:04;;;;;;;4.25;1.90;;;;;;;17.40;54.16;100412.44;4975943;28;20145;-94
2022/06/14 10:07:46;;;;;;;5.47;1.85;;;;;;;17.53;53.94;100410.94;4980282;28;20588;-93
2022/06/14 10:10:47;;;;;;;5.60;2.40;;;;;;;17.54;53.26;100412.63;4985858;28;20037;-93
2022/06/14 10:13:35;;;;;;;4.97;1.90;;;;;;;17.59;53.99;100407.53;4998132;28;20065;-92
2022/06/14 10:16:15;;;;;;;2.53;1.40;;;;;;;17.64;54.66;100401.63;5003044;28;20032;-92
2022/06/14 10:18:50;;;;;;;8.02;2.47;;;;;;;17.55;53.95;100406.19;4990762;28;20030;-93
2022/06/14 10:21:29;;;;;;;5.63;2.10;;;;;;;17.52;54.49;100395.72;4999501;28;20034;-93
2022/06/14 10:24:28;;;;;;;7.32;2.72;;;;;;;17.63;54.14;100394.53;4982957;28;20268;-92
2022/06/14 10:30:02;;;;;;;7.80;3.05;;;;;;;17.67;54.21;100389.63;5016926;28;20045;-93
2022/06/14 10:33:04;;;;;;;7.25;2.38;;;;;;;17.65;54.64;100383.53;4983035;28;20053;-93
2022/06/14 10:35:55;;;;;;;6.13;2.50;;;;;;;17.75;54.30;100389.59;4999020;28;20500;-93
2022/06/14 10:38:39;;;;;;;6.18;2.60;;;;;;;17.72;52.52;100390.81;4982796;28;20040;-93
2022/06/14 10:41:15;;;;;;;4.90;2.80;;;;;;;17.67;51.72;100393.19;4997021;28;20027;-92
2022/06/14 10:43:45;;;;;;;7.00;3.05;;;;;;;17.66;52.72;100386.06;4998885;28;20029;-93
2022/06/14 10:46:31;;;;;;;5.95;2.65;;;;;;;17.60;51.42;100381.34;5002127;28;20022;-92
2022/06/14 10:49:00;;;;;;;6.25;2.92;;;;;;;17.62;51.29;100379.31;5003402;28;20033;-93
2022/06/14 10:51:28;;;;;;;7.10;2.75;;;;;;;17.57;51.98;100378.97;5018357;28;20455;-93
2022/06/14 10:54:04;;;;;;;6.07;1.90;;;;;;;17.66;51.78;100368.97;5018328;28;20091;-91
2022/06/14 10:56:49;;;;;;;8.68;2.88;;;;;;;17.71;51.64;100364.75;4970754;28;20081;-92
2022/06/14 10:59:30;;;;;;;6.60;3.15;;;;;;;17.68;51.62;100365.13;5015021;28;20042;-93
2022/06/14 11:02:21;;;;;;;3.42;1.60;;;;;;;17.87;52.25;100359.28;5014992;28;20026;-92
2022/06/14 11:05:06;;;;;;;6.28;2.80;;;;;;;18.00;51.68;100357.91;4981360;28;20038;-92
2022/06/14 11:07:50;;;;;;;6.13;2.15;;;;;;;17.88;51.37;100350.16;4998696;28;20036;-90
2022/06/14 11:10:41;;;;;;;7.05;2.50;;;;;;;18.02;51.70;100347.75;5007052;28;20120;-90
2022/06/14 11:13:38;;;;;;;6.13;2.65;;;;;;;18.09;51.52;100346.88;5004534;28;20069;-91
2022/06/14 11:16:30;;;;;;;6.57;2.63;;;;;;;18.15;51.11;100345.31;5016970;28;20451;-90
2022/06/14 11:19:32;;;;;;;9.52;2.90;;;;;;;18.03;50.14;100339.47;5005786;28;20032;-89
2022/06/14 11:22:01;;;;;;;6.60;2.67;;;;;;;17.99;51.22;100331.88;5014006;28;20077;-90
2022/06/14 11:24:39;;;;;;;4.85;2.22;;;;;;;18.03;50.95;100328.63;5020802;28;20476;-90
2022/06/14 11:27:25;;;;;;;6.33;2.23;;;;;;;18.04;50.81;100327.59;5017400;28;20018;-89
2022/06/14 11:29:59;;;;;;;3.75;1.92;;;;;;;18.24;51.65;100322.59;4995930;28;20781;-89
2022/06/14 11:32:31;;;;;;;5.50;2.10;;;;;;;18.32;51.43;100324.41;4982490;28;20032;-90
2022/06/14 11:35:10;;;;;;;6.72;2.17;;;;;;;18.41;51.07;100320.59;5000290;28;20037;-91
2022/06/14 11:37:43;;;;;;;5.85;2.20;;;;;;;18.46;50.82;100321.78;5012584;28;20026;-90
2022/06/14 11:40:30;;;;;;;4.15;2.05;;;;;;;18.49;50.74;100312.44;5022351;28;20022;-89
2022/06/14 11:43:08;;;;;;;3.83;1.85;;;;;;;18.45;51.27;100300.28;5017270;28;20026;-90
2022/06/14 11:45:48;;;;;;;4.07;2.05;;;;;;;18.55;49.97;100304.44;5015517;28;20116;-90
2022/06/14 11:48:27;;;;;;;4.15;1.88;;;;;;;18.58;50.00;100308.66;5016539;28;20021;-89
2022/06/14 11:50:52;;;;;;;;;;;;;;;18.55;50.20;100299.03;4998268;28;20022;-89
2022/06/14 11:53:17;;;;;;;6.50;1.90;;;;;;;18.56;49.72;100305.28;5026956;28;20374;-90
2022/06/14 11:55:51;;;;;;;3.90;2.10;;;;;;;18.61;49.55;100297.47;5028818;28;20037;-90
2022/06/14 11:58:35;;;;;;;6.78;2.10;;;;;;;18.67;50.57;100296.75;5008635;28;20029;-90
2022/06/14 12:01:28;;;;;;;7.07;1.83;;;;;;;18.79;50.41;100292.59;4984630;28;20033;-90
2022/06/14 12:04:11;;;;;;;6.45;2.25;;;;;;;18.82;50.49;100302.22;5018955;28;20021;-90
2022/06/14 12:06:44;;;;;;;5.32;2.13;;;;;;;18.83;50.88;100302.03;5000660;28;20049;-90
2022/06/14 12:09:22;;;;;;;4.38;2.15;;;;;;;18.82;49.92;100294.09;5000630;28;20042;-91
2022/06/14 12:12:22;;;;;;;4.53;2.10;;;;;;;18.85;50.36;100297.28;4992486;28;20491;-90
2022/06/14 12:14:57;;;;;;;3.40;1.85;;;;;;;18.84;49.02;100289.31;5010266;28;20022;-91
2022/06/14 12:17:29;;;;;;;3.10;1.52;;;;;;;18.88;50.21;100291.47;5003023;28;20072;-86
2022/06/14 12:20:05;;;;;;;3.30;1.70;;;;;;;18.99;50.34;100286.66;4982991;28;20053;-86
2022/06/14 12:22:46;;;;;;;5.03;2.00;;;;;;;18.95;49.77;100285.34;4969824;28;20597;-86
2022/06/14 12:28:10;;;;;;;4.05;1.73;;;;;;;19.04;50.04;100276.97;4950886;28;20508;-85
2022/06/14 12:30:36;;;;;;;5.03;2.13;;;;;;;19.03;49.03;100280.69;4974621;28;20029;-86